createdAt,value
2023-03-31T00:00:20.668Z,2.531772575250836
2023-03-31T00:06:40.108Z,3.1237458193979935
2023-03-31T00:12:59.441Z,2.79933110367893
2023-03-31T00:19:19.117Z,3.237458193979933
2023-03-31T00:25:39.096Z,2.6020066889632107
2023-03-31T00:31:58.902Z,2.5351170568561874
2023-03-31T00:38:18.016Z,2.5016722408026757
2023-03-31T00:44:37.964Z,3.140468227424749
2023-03-31T00:52:59.124Z,2.9264214046822743
2023-03-31T00:59:18.830Z,2.0668896321070234
2023-03-31T01:05:38.111Z,3.160535117056856
2023-03-31T01:11:59.444Z,2.849498327759197
2023-03-31T01:18:19.786Z,2.698996655518395
2023-03-31T01:24:38.660Z,2.7324414715719065
2023-03-31T01:34:42.973Z,3.411371237458194
2023-03-31T01:41:03.874Z,2.7357859531772575
2023-03-31T01:47:23.964Z,2.7859531772575252
2023-03-31T01:53:44.361Z,2.5384615384615383
2023-03-31T02:05:18.013Z,3.040133779264214
2023-03-31T02:11:38.106Z,3.3411371237458196
2023-03-31T02:17:58.626Z,3.431438127090301
2023-03-31T02:24:19.763Z,2.682274247491639
2023-03-31T02:30:42.388Z,4.471571906354515
2023-03-31T02:37:02.653Z,2.508361204013378
2023-03-31T02:43:22.630Z,2.42809364548495
2023-03-31T02:49:42.494Z,2.1672240802675584
2023-03-31T02:56:02.477Z,3.511705685618729
2023-03-31T03:02:22.796Z,3.722408026755853
2023-03-31T03:14:37.759Z,2.6187290969899664
2023-03-31T03:20:58.868Z,3.3745819397993313
2023-03-31T03:27:18.918Z,3.2140468227424748
2023-03-31T03:33:47.894Z,3.869565217391304
2023-03-31T03:40:07.988Z,3.2474916387959865
2023-03-31T03:46:26.635Z,3.1939799331103678
2023-03-31T03:54:53.829Z,3.588628762541806
2023-03-31T04:01:13.637Z,2.6923076923076925
2023-03-31T04:08:39.221Z,2.0267558528428093
2023-03-31T04:14:59.649Z,3.100334448160535
2023-03-31T04:21:21.774Z,2.1137123745819397
2023-03-31T04:27:41.856Z,2.4749163879598663
2023-03-31T04:34:03.318Z,3.8862876254180603
2023-03-31T04:40:23.013Z,1.9899665551839465
2023-03-31T04:46:43.789Z,2.528428093645485
2023-03-31T04:58:55.556Z,3.9933110367892977
2023-03-31T05:05:17.381Z,3.7123745819397995
2023-03-31T05:11:39.106Z,3.6421404682274248
2023-03-31T05:18:01.207Z,3.702341137123746
2023-03-31T05:24:23.461Z,3.0702341137123748
2023-03-31T05:30:45.473Z,3.1103678929765888
2023-03-31T05:37:07.303Z,3.5250836120401337
2023-03-31T05:49:42.142Z,4.94314381270903
2023-03-31T05:56:04.815Z,3.3946488294314383
2023-03-31T06:02:27.441Z,2.9732441471571907
2023-03-31T06:08:50.240Z,2.6923076923076925
2023-03-31T06:15:12.642Z,3.4347826086956523
2023-03-31T06:23:12.890Z,3.448160535117057
2023-03-31T06:33:25.775Z,3.240802675585284
2023-03-31T06:46:45.426Z,3.3244147157190636
2023-03-31T06:53:06.683Z,2.0702341137123748
2023-03-31T06:59:27.418Z,2.0301003344481607
2023-03-31T07:05:48.156Z,3.9096989966555182
2023-03-31T07:22:21.331Z,1.842809364548495
2023-03-31T07:30:19.721Z,2.4849498327759196
2023-03-31T07:36:41.182Z,2.3076923076923075
2023-03-31T07:43:59.079Z,1.1906354515050168
2023-03-31T07:50:21.053Z,1.2441471571906355
2023-03-31T08:00:27.286Z,1.3244147157190636
2023-03-31T08:11:28.836Z,2.0033444816053514
2023-03-31T08:17:50.228Z,2.3444816053511706
2023-03-31T08:24:11.674Z,2.5551839464882944
2023-03-31T08:30:32.908Z,3.100334448160535
2023-03-31T08:36:53.766Z,1.859531772575251
2023-03-31T08:43:14.861Z,2.234113712374582
2023-03-31T08:49:35.573Z,2.040133779264214
2023-03-31T08:55:56.952Z,1.6187290969899666
2023-03-31T09:02:18.248Z,2.1137123745819397
2023-03-31T09:08:39.936Z,2.096989966555184
2023-03-31T09:21:00.260Z,1.9063545150501673
2023-03-31T09:27:21.393Z,1.6387959866220736
2023-03-31T09:33:42.549Z,1.8896321070234114
2023-03-31T09:40:04.095Z,2.060200668896321
2023-03-31T09:56:37.024Z,2.2240802675585285
2023-03-31T10:02:58.792Z,1.7591973244147157
2023-03-31T10:09:19.548Z,1.37123745819398
2023-03-31T10:15:42.252Z,1.7993311036789297
2023-03-31T10:22:03.458Z,1.4247491638795986
2023-03-31T10:30:13.355Z,2.217391304347826
2023-03-31T10:36:34.423Z,1.2173913043478262
2023-03-31T10:42:55.992Z,1.0367892976588629
2023-03-31T10:49:17.490Z,2.2441471571906355
2023-03-31T10:55:38.709Z,0.9264214046822743
2023-03-31T11:02:00.781Z,1.2040133779264215
2023-03-31T11:08:22.266Z,1.3076923076923077
2023-03-31T11:14:43.197Z,1.434782608695652
2023-03-31T11:29:12.165Z,1.0635451505016722
2023-03-31T11:38:55.169Z,0.919732441471572
2023-03-31T11:46:16.014Z,1.1036789297658862
2023-03-31T11:52:37.195Z,0.9531772575250836
2023-03-31T11:58:58.577Z,0.9264214046822743
2023-03-31T12:05:19.681Z,0.3612040133779264
2023-03-31T12:11:40.999Z,0.08695652173913043
2023-03-31T12:18:02.624Z,0.4682274247491639
2023-03-31T12:24:23.718Z,0.862876254180602
2023-03-31T12:30:44.664Z,0.7892976588628763
2023-03-31T12:37:06.345Z,1.1638795986622072
2023-03-31T12:47:58.151Z,0.9899665551839465
2023-03-31T12:54:19.290Z,0.41471571906354515
2023-03-31T13:00:40.090Z,0.8762541806020067
2023-03-31T13:09:37.761Z,0.45484949832775917
2023-03-31T13:15:58.809Z,0.6421404682274248
2023-03-31T13:22:19.796Z,0.9765886287625418
2023-03-31T13:28:40.721Z,0.3979933110367893
2023-03-31T13:35:01.965Z,0.8561872909698997
2023-03-31T13:41:23.164Z,0.7090301003344481
2023-03-31T13:47:45.057Z,0.8762541806020067
2023-03-31T13:54:06.090Z,0.6354515050167224
2023-03-31T14:01:05.800Z,0.802675585284281
2023-03-31T14:07:27.122Z,0.7692307692307693
2023-03-31T14:13:48.290Z,0.5083612040133779
2023-03-31T14:20:09.704Z,0.5852842809364549
2023-03-31T14:26:30.551Z,0.6755852842809364
2023-03-31T14:32:51.859Z,0.5418060200668896
2023-03-31T14:39:13.601Z,0.782608695652174
2023-03-31T14:45:35.142Z,0.6220735785953178
2023-03-31T14:51:57.288Z,0.8561872909698997
2023-03-31T14:58:19.655Z,1.0100334448160535
2023-03-31T15:04:42.736Z,1.2508361204013378
2023-03-31T15:11:13.019Z,0.9765886287625418
2023-03-31T15:17:35.182Z,0.9866220735785953
2023-03-31T15:29:16.147Z,1.826086956521739
2023-03-31T15:35:37.642Z,1.3444816053511706
2023-03-31T15:41:59.345Z,0.6086956521739131
2023-03-31T15:48:20.805Z,0.9966555183946488
2023-03-31T15:54:42.215Z,0.882943143812709
2023-03-31T16:01:03.393Z,1.5819397993311037
2023-03-31T16:07:24.847Z,0.568561872909699
2023-03-31T16:13:46.594Z,0.7692307692307693
2023-03-31T16:21:02.216Z,1.2809364548494984
2023-03-31T16:27:43.393Z,1.2775919732441472
2023-03-31T16:34:35.630Z,1.411371237458194
2023-03-31T16:57:31.281Z,0.9498327759197325
2023-03-31T17:03:53.174Z,1.1103678929765886
2023-03-31T17:10:15.096Z,1.8561872909698998
2023-03-31T17:36:25.384Z,1.4280936454849498
2023-03-31T17:42:47.626Z,2.1471571906354514
2023-03-31T17:49:09.280Z,2.0434782608695654
2023-03-31T17:55:28.056Z,2.7123745819397995
2023-03-31T18:01:47.664Z,1.5551839464882944
2023-03-31T18:12:48.166Z,1.1973244147157192
2023-03-31T18:22:33.073Z,1.2307692307692308
2023-03-31T18:28:52.360Z,1.6755852842809364
2023-03-31T18:35:11.098Z,1.5317725752508362
2023-03-31T18:41:29.914Z,1.5150501672240804
2023-03-31T18:47:51.359Z,1.0702341137123745
2023-03-31T18:54:10.399Z,1.826086956521739
2023-03-31T19:00:30.045Z,1.8227424749163879
2023-03-31T19:06:49.264Z,1.508361204013378
2023-03-31T19:13:08.676Z,1.431438127090301
2023-03-31T19:19:27.930Z,1.274247491638796
2023-03-31T19:33:08.171Z,1.1872909698996656
2023-03-31T19:39:26.941Z,1.3846153846153846
2023-03-31T19:45:50.123Z,1.334448160535117
2023-03-31T19:52:10.610Z,0.7023411371237458
2023-03-31T19:58:29.414Z,1.2073578595317727
2023-03-31T20:04:49.185Z,1.0234113712374582
2023-03-31T20:11:08.751Z,1.0735785953177257
2023-03-31T20:17:28.194Z,0.46153846153846156
2023-03-31T20:23:47.560Z,0.36789297658862874
2023-03-31T20:30:08.269Z,0.6956521739130435
2023-03-31T20:36:26.782Z,0.4080267558528428
2023-03-31T20:49:18.212Z,0.8361204013377926
2023-03-31T20:55:37.362Z,0.6421404682274248
2023-03-31T21:05:16.583Z,0.8260869565217391
2023-03-31T21:11:37.027Z,0.6822742474916388
2023-03-31T21:17:56.036Z,1.140468227424749
2023-03-31T21:29:25.285Z,0.5551839464882943
2023-03-31T21:35:44.183Z,0.6086956521739131
2023-03-31T21:42:03.888Z,0.49498327759197325
2023-03-31T21:48:22.662Z,0.5351170568561873
2023-03-31T21:54:41.583Z,0.6287625418060201
2023-03-31T22:01:00.705Z,1.157190635451505
2023-03-31T22:07:19.270Z,1.0769230769230769
2023-03-31T22:13:37.911Z,0.46153846153846156
2023-03-31T22:23:28.884Z,0.4882943143812709
2023-03-31T22:29:47.588Z,1.0836120401337792
2023-03-31T22:36:06.342Z,1.3578595317725752
2023-03-31T22:51:28.351Z,1.1705685618729098
2023-03-31T22:57:46.903Z,1.9130434782608696
2023-03-31T23:04:06.302Z,1.6020066889632107
2023-03-31T23:10:25.072Z,1.0702341137123745
2023-03-31T23:16:43.723Z,1.1337792642140467
2023-03-31T23:23:02.758Z,1.5418060200668897
2023-03-31T23:40:00.580Z,1.528428093645485
2023-03-31T23:46:19.224Z,1.862876254180602
2023-03-31T23:59:41.565Z,1.725752508361204
